createdAt,value
2023-04-23T00:02:09.503Z,9.53
2023-04-23T00:04:39.794Z,8.77
2023-04-23T00:07:09.297Z,10.00
2023-04-23T00:09:37.901Z,9.50
2023-04-23T00:12:07.871Z,8.83
2023-04-23T00:14:36.634Z,16.07
2023-04-23T00:17:05.020Z,12.17
2023-04-23T00:19:35.581Z,10.53
2023-04-23T00:22:03.721Z,10.00
2023-04-23T00:24:32.140Z,10.60
2023-04-23T00:27:00.279Z,10.43
2023-04-23T00:29:28.338Z,9.30
2023-04-23T00:31:56.388Z,10.30
2023-04-23T00:34:24.582Z,10.07
2023-04-23T00:36:53.966Z,9.50
2023-04-23T00:39:22.276Z,8.80
2023-04-23T00:41:50.242Z,8.97
2023-04-23T00:44:18.362Z,8.73
2023-04-23T00:46:47.459Z,11.90
2023-04-23T00:49:16.533Z,11.00
2023-04-23T00:51:44.553Z,9.60
2023-04-23T00:54:14.439Z,9.40
2023-04-23T00:56:42.636Z,9.70
2023-04-23T00:59:10.740Z,9.30
2023-04-23T01:01:38.892Z,9.43
2023-04-23T01:04:07.306Z,11.10
2023-04-23T01:06:35.809Z,10.20
2023-04-23T01:09:06.200Z,9.50
2023-04-23T01:11:35.700Z,10.37
2023-04-23T01:14:04.850Z,9.30
2023-04-23T01:16:33.018Z,9.77
2023-04-23T01:19:02.225Z,11.47
2023-04-23T01:21:31.704Z,10.30
2023-04-23T01:24:01.273Z,12.67
2023-04-23T01:26:29.500Z,10.13
2023-04-23T01:28:57.767Z,11.07
2023-04-23T01:31:26.169Z,13.27
2023-04-23T01:33:55.425Z,12.00
2023-04-23T01:36:24.670Z,11.90
2023-04-23T01:38:53.340Z,12.10
2023-04-23T01:41:22.947Z,11.37
2023-04-23T01:43:51.064Z,12.43
2023-04-23T01:46:19.115Z,13.30
2023-04-23T01:48:47.019Z,12.97
2023-04-23T01:51:15.453Z,16.23
2023-04-23T01:53:43.540Z,15.00
2023-04-23T01:56:11.806Z,18.83
2023-04-23T01:58:41.323Z,17.83
2023-04-23T02:01:09.528Z,21.03
2023-04-23T02:03:37.791Z,17.17
2023-04-23T02:06:06.495Z,16.47
2023-04-23T02:08:34.666Z,18.43
2023-04-23T02:11:02.993Z,16.27
2023-04-23T02:13:30.942Z,15.37
2023-04-23T02:16:00.703Z,19.13
2023-04-23T02:18:28.873Z,16.20
2023-04-23T02:20:58.677Z,13.30
2023-04-23T02:23:26.666Z,13.47
2023-04-23T02:25:54.889Z,11.70
2023-04-23T02:28:22.965Z,11.63
2023-04-23T02:30:51.051Z,12.30
2023-04-23T02:33:21.073Z,11.30
2023-04-23T02:35:49.155Z,10.43
2023-04-23T02:38:17.693Z,11.07
2023-04-23T02:40:45.865Z,12.80
2023-04-23T02:43:13.987Z,10.50
2023-04-23T02:45:43.292Z,11.70
2023-04-23T02:48:11.245Z,10.73
2023-04-23T02:50:41.705Z,11.27
2023-04-23T02:53:09.761Z,10.33
2023-04-23T02:55:37.948Z,14.17
2023-04-23T02:58:06.673Z,13.47
2023-04-23T03:00:34.833Z,10.70
2023-04-23T03:03:02.988Z,14.10
2023-04-23T03:05:31.348Z,11.23
2023-04-23T03:08:00.823Z,12.97
2023-04-23T03:10:28.946Z,11.70
2023-04-23T03:12:57.644Z,10.03
2023-04-23T03:15:28.266Z,10.13
2023-04-23T03:17:56.573Z,9.60
2023-04-23T03:20:24.871Z,11.03
2023-04-23T03:22:53.085Z,13.87
2023-04-23T03:25:24.501Z,10.70
2023-04-23T03:27:52.672Z,13.47
2023-04-23T03:30:21.966Z,10.50
2023-04-23T03:32:51.086Z,10.90
2023-04-23T03:35:19.267Z,9.43
2023-04-23T03:37:47.410Z,9.87
2023-04-23T03:40:15.562Z,9.77
2023-04-23T03:42:45.116Z,11.93
2023-04-23T03:45:14.597Z,11.27
2023-04-23T03:47:42.653Z,9.70
2023-04-23T03:50:13.379Z,10.60
2023-04-23T03:52:42.065Z,11.77
2023-04-23T03:55:10.889Z,12.63
2023-04-23T03:57:39.076Z,10.90
2023-04-23T04:00:11.858Z,9.60
2023-04-23T04:02:40.408Z,11.53
2023-04-23T04:05:11.496Z,14.43
2023-04-23T04:07:40.212Z,12.10
2023-04-23T04:10:09.316Z,13.90
2023-04-23T04:12:37.550Z,9.80
2023-04-23T04:15:06.457Z,10.23
2023-04-23T04:17:35.931Z,10.07
2023-04-23T04:20:03.987Z,9.60
2023-04-23T04:22:32.339Z,13.73
2023-04-23T04:25:00.370Z,10.90
2023-04-23T04:27:28.691Z,9.50
2023-04-23T04:29:56.797Z,9.17
2023-04-23T04:32:24.936Z,9.30
2023-04-23T04:34:54.445Z,10.73
2023-04-23T04:37:22.589Z,9.50
2023-04-23T04:39:51.437Z,11.57
2023-04-23T04:42:20.435Z,12.40
2023-04-23T04:44:48.418Z,10.57
2023-04-23T04:47:16.448Z,10.17
2023-04-23T04:49:45.138Z,9.73
2023-04-23T04:52:14.750Z,10.47
2023-04-23T04:54:42.871Z,10.57
2023-04-23T04:57:11.276Z,11.70
2023-04-23T04:59:39.660Z,14.20
2023-04-23T05:02:08.135Z,13.50
2023-04-23T05:04:36.260Z,14.93
2023-04-23T05:07:04.349Z,12.60
2023-04-23T05:09:33.839Z,13.03
2023-04-23T05:12:02.940Z,17.40
2023-04-23T05:14:30.972Z,17.63
2023-04-23T05:16:59.080Z,15.47
2023-04-23T05:19:27.128Z,12.97
2023-04-23T05:21:55.249Z,14.23
2023-04-23T05:24:23.574Z,15.63
2023-04-23T05:26:53.106Z,11.67
2023-04-23T05:29:21.218Z,15.87
2023-04-23T05:31:49.341Z,15.30
2023-04-23T05:34:17.285Z,15.10
2023-04-23T05:36:45.285Z,12.97
2023-04-23T05:39:13.300Z,13.10
2023-04-23T05:41:41.311Z,13.03
2023-04-23T05:44:10.735Z,11.63
2023-04-23T05:46:38.814Z,11.10
2023-04-23T05:49:07.099Z,9.47
2023-04-23T05:51:35.179Z,10.20
2023-04-23T05:54:03.543Z,7.60
2023-04-23T05:56:31.527Z,8.33
2023-04-23T05:58:59.593Z,8.50
2023-04-23T06:01:29.024Z,10.07
2023-04-23T06:03:57.325Z,9.03
2023-04-23T06:06:26.206Z,7.70
2023-04-23T06:08:54.553Z,8.73
2023-04-23T06:11:22.763Z,8.73
2023-04-23T06:13:50.889Z,8.30
2023-04-23T06:16:19.202Z,7.93
2023-04-23T06:18:48.691Z,8.10
2023-04-23T06:21:18.099Z,8.23
2023-04-23T06:23:46.766Z,8.35
2023-04-23T06:26:14.916Z,8.35
2023-04-23T06:28:43.498Z,6.97
2023-04-23T06:31:11.875Z,11.43
2023-04-23T06:33:39.999Z,9.40
2023-04-23T06:36:11.129Z,9.15
2023-04-23T06:38:39.700Z,7.97
2023-04-23T06:41:09.207Z,7.68
2023-04-23T06:43:37.502Z,7.63
2023-04-23T06:46:05.488Z,8.82
2023-04-23T06:48:33.974Z,8.05
2023-04-23T06:51:02.568Z,10.23
2023-04-23T06:53:32.020Z,7.85
2023-04-23T06:56:00.318Z,7.43
2023-04-23T06:58:31.605Z,9.30
2023-04-23T07:01:04.383Z,9.88
2023-04-23T07:03:32.922Z,6.70
2023-04-23T07:06:01.395Z,7.13
2023-04-23T07:08:29.663Z,7.45
2023-04-23T07:10:59.202Z,7.97
2023-04-23T07:13:27.366Z,7.25
2023-04-23T07:15:55.499Z,9.50
2023-04-23T07:18:23.568Z,6.80
2023-04-23T07:20:51.710Z,7.80
2023-04-23T07:23:19.759Z,8.77
2023-04-23T07:25:48.044Z,7.15
2023-04-23T07:28:17.573Z,7.55
2023-04-23T07:30:45.639Z,7.43
2023-04-23T07:33:14.009Z,7.60
2023-04-23T07:35:42.100Z,8.65
2023-04-23T07:38:10.182Z,7.70
2023-04-23T07:40:38.268Z,9.18
2023-04-23T07:43:07.287Z,23.65
2023-04-23T07:45:36.861Z,7.50
2023-04-23T07:48:05.080Z,9.05
2023-04-23T07:50:33.167Z,10.90
2023-04-23T07:53:01.327Z,8.23
2023-04-23T07:55:29.421Z,8.32
2023-04-23T07:57:57.700Z,7.82
2023-04-23T08:00:26.058Z,9.40
2023-04-23T08:02:56.266Z,8.48
2023-04-23T08:05:24.389Z,8.45
2023-04-23T08:07:52.325Z,8.93
2023-04-23T08:10:20.519Z,8.40
2023-04-23T08:12:48.609Z,8.65
2023-04-23T08:15:16.686Z,8.65
2023-04-23T08:17:44.872Z,8.23
2023-04-23T08:20:14.494Z,8.57
2023-04-23T08:22:42.685Z,11.20
2023-04-23T08:25:11.241Z,9.52
2023-04-23T08:27:39.345Z,8.80
2023-04-23T08:30:08.739Z,9.32
2023-04-23T08:32:38.467Z,8.65
2023-04-23T08:35:10.433Z,8.30
2023-04-23T08:37:41.436Z,8.20
2023-04-23T08:40:11.806Z,8.68
2023-04-23T08:42:43.904Z,8.68
2023-04-23T08:45:13.334Z,7.85
2023-04-23T08:47:43.646Z,8.20
2023-04-23T08:50:13.232Z,8.00
2023-04-23T08:52:47.932Z,8.05
2023-04-23T08:55:18.936Z,8.23
2023-04-23T08:57:48.264Z,8.35
2023-04-23T09:00:18.079Z,8.65
2023-04-23T09:02:47.783Z,8.50
2023-04-23T09:05:16.457Z,8.13
2023-04-23T09:07:46.588Z,9.18
2023-04-23T09:10:18.505Z,8.70
2023-04-23T09:12:48.356Z,8.07
2023-04-23T09:15:16.781Z,8.00
2023-04-23T09:17:46.411Z,8.50
2023-04-23T09:20:15.958Z,8.25
2023-04-23T09:22:47.763Z,7.18
2023-04-23T09:25:18.143Z,8.02
2023-04-23T09:27:46.935Z,6.88
2023-04-23T09:30:15.906Z,6.65
2023-04-23T09:32:46.244Z,7.63
2023-04-23T09:35:15.735Z,8.48
2023-04-23T09:37:48.858Z,7.05
2023-04-23T09:40:18.596Z,7.78
2023-04-23T09:42:50.089Z,7.30
2023-04-23T09:45:18.791Z,7.55
2023-04-23T09:47:51.748Z,7.38
2023-04-23T09:50:20.355Z,7.40
2023-04-23T09:52:56.325Z,7.38
2023-04-23T09:55:30.811Z,7.20
2023-04-23T09:57:59.811Z,7.65
2023-04-23T10:00:30.751Z,7.55
2023-04-23T10:03:01.350Z,6.75
2023-04-23T10:05:37.317Z,7.35
2023-04-23T10:08:19.991Z,8.50
2023-04-23T10:13:21.479Z,5.95
2023-04-23T10:15:49.753Z,6.63
2023-04-23T10:18:17.903Z,7.35
2023-04-23T10:20:46.313Z,7.55
2023-04-23T10:23:16.404Z,7.00
2023-04-23T10:25:47.005Z,7.50
2023-04-23T10:28:17.663Z,6.80
2023-04-23T10:30:46.372Z,5.57
2023-04-23T10:33:26.408Z,7.05
2023-04-23T10:35:58.363Z,7.90
2023-04-23T10:38:28.467Z,6.20
2023-04-23T10:41:00.232Z,6.30
2023-04-23T10:43:28.385Z,6.38
2023-04-23T10:45:56.666Z,6.80
2023-04-23T10:48:24.643Z,7.95
2023-04-23T10:51:17.545Z,6.53
2023-04-23T10:53:47.667Z,5.75
2023-04-23T10:56:17.065Z,5.30
2023-04-23T10:58:52.985Z,7.00
2023-04-23T11:01:22.243Z,6.50
2023-04-23T11:03:53.077Z,6.53
2023-04-23T11:06:43.530Z,5.72
2023-04-23T11:09:32.078Z,5.90
2023-04-23T11:12:03.216Z,8.77
2023-04-23T11:14:53.020Z,6.30
2023-04-23T11:18:04.949Z,6.40
2023-04-23T11:20:33.181Z,6.57
2023-04-23T11:23:01.245Z,6.13
2023-04-23T11:25:30.504Z,7.03
2023-04-23T11:28:00.302Z,5.70
2023-04-23T11:30:29.969Z,6.35
2023-04-23T11:33:00.403Z,5.38
2023-04-23T11:35:30.658Z,5.38
2023-04-23T11:37:58.812Z,5.93
2023-04-23T11:40:31.124Z,5.70
2023-04-23T11:43:02.818Z,5.28
2023-04-23T11:45:30.955Z,6.13
2023-04-23T11:48:01.785Z,6.10
2023-04-23T11:50:33.192Z,6.70
2023-04-23T11:53:06.453Z,5.55
2023-04-23T11:55:34.748Z,5.68
2023-04-23T11:58:04.421Z,6.97
2023-04-23T12:00:32.555Z,5.78
2023-04-23T12:03:01.841Z,5.70
2023-04-23T12:05:32.955Z,5.65
2023-04-23T12:08:10.974Z,5.30
2023-04-23T12:10:47.527Z,5.50
2023-04-23T12:13:18.365Z,6.53
2023-04-23T12:15:51.266Z,5.40
2023-04-23T12:18:20.283Z,5.30
2023-04-23T12:20:48.316Z,5.95
2023-04-23T12:23:16.329Z,5.80
2023-04-23T12:25:44.362Z,5.32
2023-04-23T12:28:12.838Z,5.47
2023-04-23T12:30:46.276Z,5.00
2023-04-23T12:33:15.016Z,5.95
2023-04-23T12:35:44.668Z,5.10
2023-04-23T12:38:24.051Z,5.75
2023-04-23T12:40:52.209Z,6.65
2023-04-23T12:43:20.391Z,5.50
2023-04-23T12:45:53.097Z,5.30
2023-04-23T12:48:21.693Z,5.30
2023-04-23T12:50:50.460Z,5.68
2023-04-23T12:53:21.372Z,6.47
2023-04-23T12:55:50.555Z,5.35
2023-04-23T12:58:18.904Z,6.15
2023-04-23T13:00:47.541Z,5.03
2023-04-23T13:03:19.689Z,5.00
2023-04-23T13:05:48.163Z,5.03
2023-04-23T13:08:16.048Z,4.93
2023-04-23T13:10:45.037Z,4.97
2023-04-23T13:13:13.112Z,4.78
2023-04-23T13:15:41.172Z,5.22
2023-04-23T13:18:09.306Z,5.43
2023-04-23T13:20:38.684Z,5.95
2023-04-23T13:23:08.827Z,4.95
2023-04-23T13:25:37.071Z,4.65
2023-04-23T13:28:05.242Z,5.03
2023-04-23T13:30:33.182Z,6.30
2023-04-23T13:33:01.294Z,6.43
2023-04-23T13:35:29.487Z,4.93
2023-04-23T13:38:00.352Z,5.32
2023-04-23T13:40:28.480Z,5.55
2023-04-23T13:42:56.455Z,5.07
2023-04-23T13:45:24.488Z,6.53
2023-04-23T13:47:52.667Z,4.57
2023-04-23T13:50:20.975Z,4.88
2023-04-23T13:52:51.500Z,4.43
2023-04-23T13:55:21.377Z,4.47
2023-04-23T13:57:49.442Z,10.02
2023-04-23T14:00:18.544Z,6.55
2023-04-23T14:02:46.826Z,8.43
2023-04-23T14:05:14.902Z,8.07
2023-04-23T14:07:42.945Z,10.45
2023-04-23T14:10:11.470Z,7.57
2023-04-23T14:12:40.877Z,8.30
2023-04-23T14:15:10.447Z,12.25
2023-04-23T14:17:39.400Z,7.80
2023-04-23T14:20:09.402Z,5.43
2023-04-23T14:22:37.846Z,6.88
2023-04-23T14:25:10.215Z,7.30
2023-04-23T14:27:43.146Z,5.40
2023-04-23T14:30:17.513Z,4.65
2023-04-23T14:32:49.448Z,4.80
2023-04-23T14:35:21.283Z,4.63
2023-04-23T14:37:57.352Z,4.78
2023-04-23T14:40:25.281Z,4.28
2023-04-23T14:42:56.998Z,5.57
2023-04-23T14:45:31.415Z,4.90
2023-04-23T14:48:00.104Z,6.03
2023-04-23T14:50:29.080Z,4.77
2023-04-23T14:52:58.909Z,4.60
2023-04-23T14:55:27.281Z,7.43
2023-04-23T14:57:56.627Z,7.33
2023-04-23T15:00:24.764Z,7.80
2023-04-23T15:02:53.369Z,6.90
2023-04-23T15:05:21.540Z,6.47
2023-04-23T15:07:51.482Z,7.27
2023-04-23T15:10:21.645Z,6.60
2023-04-23T15:13:02.675Z,7.23
2023-04-23T15:15:44.340Z,6.73
2023-04-23T15:18:13.136Z,6.57
2023-04-23T15:20:41.169Z,6.47
2023-04-23T15:23:09.360Z,6.43
2023-04-23T15:25:37.666Z,7.00
2023-04-23T15:28:07.706Z,6.27
2023-04-23T15:30:35.746Z,7.43
2023-04-23T15:33:03.800Z,6.30
2023-04-23T15:35:32.338Z,5.93
2023-04-23T15:38:01.579Z,8.67
2023-04-23T15:40:30.366Z,8.20
2023-04-23T15:42:58.423Z,8.27
2023-04-23T15:45:27.770Z,8.10
2023-04-23T15:47:55.954Z,10.33
2023-04-23T15:50:26.725Z,7.80
2023-04-23T15:52:55.327Z,8.37
2023-04-23T15:55:23.427Z,7.77
2023-04-23T15:57:51.615Z,6.70
2023-04-23T16:00:19.696Z,6.77
2023-04-23T16:02:49.524Z,7.40
2023-04-23T16:05:18.986Z,6.60
2023-04-23T16:07:47.243Z,6.87
2023-04-23T16:10:15.380Z,9.23
2023-04-23T16:12:45.742Z,6.90
2023-04-23T16:15:13.968Z,6.77
2023-04-23T16:17:42.072Z,7.50
2023-04-23T16:20:12.555Z,9.13
2023-04-23T16:22:40.600Z,7.27
2023-04-23T16:25:09.403Z,7.57
2023-04-23T16:27:37.616Z,6.67
2023-04-23T16:30:06.170Z,10.00
2023-04-23T16:32:36.143Z,7.20
2023-04-23T16:35:04.493Z,7.57
2023-04-23T16:37:34.021Z,8.00
2023-04-23T16:40:02.488Z,8.90
2023-04-23T16:42:30.461Z,7.97
2023-04-23T16:44:59.797Z,9.17
2023-04-23T16:47:28.260Z,8.83
2023-04-23T16:49:56.224Z,9.53
2023-04-23T16:52:24.288Z,8.90
2023-04-23T16:54:53.631Z,10.00
2023-04-23T16:57:22.503Z,12.67
2023-04-23T16:59:52.609Z,9.57
2023-04-23T17:02:21.095Z,10.90
2023-04-23T17:04:49.773Z,14.03
2023-04-23T17:07:18.002Z,14.33
2023-04-23T17:09:46.155Z,13.10
2023-04-23T17:12:15.446Z,14.47
2023-04-23T17:14:43.664Z,10.57
2023-04-23T17:17:11.881Z,11.27
2023-04-23T17:19:39.925Z,11.00
2023-04-23T17:22:10.710Z,11.80
2023-04-23T17:24:39.200Z,14.60
2023-04-23T17:27:07.373Z,14.67
2023-04-23T17:29:36.844Z,12.73
2023-04-23T17:32:04.892Z,12.87
2023-04-23T17:34:35.059Z,11.17
2023-04-23T17:37:03.143Z,11.60
2023-04-23T17:39:32.153Z,11.40
2023-04-23T17:42:00.347Z,13.60
2023-04-23T17:44:28.640Z,13.73
2023-04-23T17:46:57.955Z,12.53
2023-04-23T17:49:26.051Z,16.00
2023-04-23T17:51:54.339Z,13.23
2023-04-23T17:54:22.565Z,14.90
2023-04-23T17:56:52.082Z,15.57
2023-04-23T17:59:20.107Z,18.83
2023-04-23T18:01:50.798Z,17.53
2023-04-23T18:04:20.368Z,22.43
2023-04-23T18:06:48.473Z,20.73
2023-04-23T18:09:16.475Z,20.97
2023-04-23T18:11:45.010Z,19.33
2023-04-23T18:14:13.387Z,15.20
2023-04-23T18:16:41.507Z,14.43
2023-04-23T18:19:09.931Z,15.10
2023-04-23T18:21:39.995Z,13.67
2023-04-23T18:24:08.066Z,14.57
2023-04-23T18:26:36.088Z,15.03
2023-04-23T18:29:04.094Z,13.20
2023-04-23T18:31:32.856Z,12.27
2023-04-23T18:34:03.065Z,13.23
2023-04-23T18:36:32.985Z,14.80
2023-04-23T18:39:02.509Z,11.93
2023-04-23T18:41:31.054Z,11.17
2023-04-23T18:44:02.799Z,11.70
2023-04-23T18:46:32.140Z,11.27
2023-04-23T18:49:02.521Z,13.10
2023-04-23T18:51:34.943Z,14.27
2023-04-23T18:54:06.003Z,14.30
2023-04-23T18:56:34.164Z,12.23
2023-04-23T18:59:02.273Z,11.53
2023-04-23T19:01:30.578Z,13.10
2023-04-23T19:03:58.623Z,12.97
2023-04-23T19:06:26.958Z,12.67
2023-04-23T19:08:56.348Z,12.63
2023-04-23T19:11:30.282Z,13.53
2023-04-23T19:13:58.489Z,12.37
2023-04-23T19:16:26.942Z,13.07
2023-04-23T19:18:55.012Z,12.17
2023-04-23T19:21:23.332Z,12.40
2023-04-23T19:23:51.886Z,11.90
2023-04-23T19:26:19.874Z,12.90
2023-04-23T19:28:49.437Z,11.23
2023-04-23T19:31:17.629Z,13.10
2023-04-23T19:33:47.643Z,11.87
2023-04-23T19:36:15.997Z,13.17
2023-04-23T19:38:44.590Z,12.40
2023-04-23T19:41:12.633Z,10.67
2023-04-23T19:43:41.459Z,12.03
2023-04-23T19:46:10.957Z,13.53
2023-04-23T19:48:38.948Z,13.93
2023-04-23T19:51:07.731Z,13.73
2023-04-23T19:53:35.843Z,10.77
2023-04-23T19:56:04.546Z,12.43
2023-04-23T19:58:32.459Z,13.27
2023-04-23T20:01:00.528Z,13.63
2023-04-23T20:03:30.835Z,12.17
2023-04-23T20:05:59.477Z,10.77
2023-04-23T20:08:29.728Z,11.13
2023-04-23T20:10:58.728Z,9.87
2023-04-23T20:13:27.006Z,12.43
2023-04-23T20:15:55.181Z,12.80
2023-04-23T20:18:25.758Z,11.40
2023-04-23T20:20:55.098Z,13.83
2023-04-23T20:23:23.110Z,9.97
2023-04-23T20:25:51.206Z,11.57
2023-04-23T20:28:19.280Z,12.87
2023-04-23T20:30:47.452Z,10.33
2023-04-23T20:33:16.074Z,10.23
2023-04-23T20:35:44.199Z,11.30
2023-04-23T20:38:14.137Z,11.37
2023-04-23T20:40:42.249Z,9.93
2023-04-23T20:43:11.452Z,10.47
2023-04-23T20:45:40.339Z,12.03
2023-04-23T20:48:08.880Z,11.07
2023-04-23T20:50:37.201Z,11.83
2023-04-23T20:53:05.299Z,12.70
2023-04-23T20:55:34.738Z,10.77
2023-04-23T20:58:02.701Z,11.47
2023-04-23T21:00:31.206Z,11.83
2023-04-23T21:02:59.843Z,10.60
2023-04-23T21:05:28.079Z,11.03
2023-04-23T21:07:56.411Z,11.23
2023-04-23T21:10:24.636Z,10.10
2023-04-23T21:12:55.159Z,13.23
2023-04-23T21:15:23.295Z,9.70
2023-04-23T21:17:51.813Z,9.20
2023-04-23T21:20:20.136Z,9.60
2023-04-23T21:22:48.092Z,9.40
2023-04-23T21:25:16.214Z,11.30
2023-04-23T21:27:48.436Z,8.73
2023-04-23T21:30:25.537Z,12.53
2023-04-23T21:32:54.364Z,9.63
2023-04-23T21:35:22.645Z,9.83
2023-04-23T21:37:50.805Z,9.77
2023-04-23T21:40:20.892Z,11.17
2023-04-23T21:42:49.982Z,10.93
2023-04-23T21:45:19.682Z,9.10
2023-04-23T21:47:47.775Z,8.17
2023-04-23T21:50:17.598Z,9.30
2023-04-23T21:52:45.779Z,10.37
2023-04-23T21:55:13.780Z,8.33
2023-04-23T21:57:41.810Z,9.90
2023-04-23T22:00:14.106Z,9.20
2023-04-23T22:02:46.436Z,10.03
2023-04-23T22:05:17.065Z,9.73
2023-04-23T22:07:45.124Z,7.17
2023-04-23T22:10:14.866Z,6.90
2023-04-23T22:12:43.706Z,7.73
2023-04-23T22:15:15.214Z,7.27
2023-04-23T22:17:46.418Z,8.13
2023-04-23T22:20:15.909Z,6.63
2023-04-23T22:22:44.201Z,6.83
2023-04-23T22:25:12.953Z,7.40
2023-04-23T22:27:42.519Z,8.53
2023-04-23T22:30:12.138Z,11.63
2023-04-23T22:32:41.006Z,7.47
2023-04-23T22:35:11.112Z,8.50
2023-04-23T22:37:39.662Z,7.67
2023-04-23T22:40:09.662Z,8.83
2023-04-23T22:42:37.993Z,12.23
2023-04-23T22:45:07.360Z,8.93
2023-04-23T22:47:35.531Z,8.57
2023-04-23T22:50:03.864Z,7.40
2023-04-23T22:52:33.920Z,7.83
2023-04-23T22:55:02.247Z,9.63
2023-04-23T22:57:31.926Z,7.47
2023-04-23T23:00:00.054Z,7.83
2023-04-23T23:02:28.295Z,9.50
2023-04-23T23:04:56.367Z,6.83
2023-04-23T23:07:24.459Z,8.63
2023-04-23T23:09:53.972Z,8.10
2023-04-23T23:12:22.593Z,9.73
2023-04-23T23:14:50.613Z,6.53
2023-04-23T23:17:18.776Z,9.47
2023-04-23T23:19:46.914Z,7.50
2023-04-23T23:22:15.142Z,7.60
2023-04-23T23:24:43.121Z,9.03
2023-04-23T23:27:12.568Z,9.30
2023-04-23T23:29:40.879Z,8.40
2023-04-23T23:32:09.193Z,9.13
2023-04-23T23:34:37.342Z,7.70
2023-04-23T23:37:05.751Z,7.87
2023-04-23T23:39:33.776Z,7.40
2023-04-23T23:42:02.444Z,7.63
2023-04-23T23:44:31.974Z,9.97
2023-04-23T23:47:00.509Z,7.60
2023-04-23T23:49:28.651Z,9.33
2023-04-23T23:51:56.847Z,8.67
2023-04-23T23:54:24.983Z,13.33
2023-04-23T23:56:53.133Z,9.37
2023-04-23T23:59:21.256Z,8.40
